Date,TemperatureHighF,TemperatureAvgF,TemperatureLowF,DewpointHighF,DewpointAvgF,DewpointLowF,HumidityHigh,HumidityAvg,HumidityLow,PressureMaxIn,PressureMinIn,WindSpeedMaxMPH,WindSpeedAvgMPH,GustSpeedMaxMPH,PrecipitationSumIn
2013-3-1,70.0,56.8,47.3,45.4,38.1,32.7,82,53,28,29.56,29.38,4,0,4,0.00
2013-3-2,71.6,60.1,53.8,40.0,36.1,33.3,52,41,29,29.38,29.21,3,0,4,0.00
2013-3-3,63.9,53.6,48.0,44.3,37.8,32.4,73,56,35,29.23,29.18,4,0,4,0.00
2013-3-4,57.0,49.4,41.9,41.7,36.1,29.6,78,61,40,29.26,29.18,3,0,4,0.00
2013-3-5,59.4,47.3,41.7,38.7,34.2,27.8,76,63,33,29.21,28.97,7,0,8,0.00
2013-3-6,56.3,48.7,41.4,45.5,34.5,26.0,87,61,35,29.21,28.97,8,0,8,0.12
2013-3-7,58.8,48.5,40.3,41.2,31.7,23.2,81,56,26,29.12,28.97,4,0,4,0.04
2013-3-8,58.8,48.0,41.9,41.9,36.1,31.1,87,65,37,29.18,28.94,4,0,4,0.04
2013-3-9,63.0,50.0,42.1,43.4,34.8,29.3,86,59,30,29.41,29.18,4,0,4,0.00
2013-3-10,67.5,52.4,41.7,35.2,26.3,0.6,69,42,7,29.47,29.38,5,0,6,0.00
2013-3-11,71.1,54.9,43.7,35.0,26.9,21.7,46,35,23,29.38,29.23,3,0,3,0.00
2013-3-12,70.7,58.5,45.1,43.5,37.2,25.8,74,47,33,29.29,29.21,0,0,2,0.00
2013-3-13,75.6,61.6,49.6,43.3,39.3,36.9,69,46,29,29.29,29.20,5,0,5,0.00
2013-3-14,70.5,59.1,51.1,48.7,40.4,34.9,74,52,32,29.29,29.21,2,0,3,0.00
2013-3-15,70.3,55.9,46.6,41.8,38.5,34.6,73,55,29,29.26,29.21,0,0,0,0.00
2013-3-16,69.6,55.7,48.0,51.1,41.9,32.7,85,64,31,29.24,29.18,0,0,4,0.00
2013-3-17,67.6,52.9,44.2,43.8,35.2,28.6,78,55,26,29.26,29.18,0,0,0,0.00
2013-3-18,66.2,51.9,42.6,41.9,33.5,28.4,72,52,27,29.26,29.18,4,0,4,0.00
2013-3-19,70.5,51.7,46.0,41.3,34.1,25.9,72,54,22,29.26,29.18,4,0,6,0.00
2013-3-20,61.2,54.0,50.0,51.1,46.0,38.8,84,75,44,29.26,29.18,3,0,6,0.00
2013-3-21,63.5,51.1,41.5,47.3,34.7,28.0,83,57,26,29.26,29.15,4,0,5,0.00
2013-3-22,67.1,51.6,41.2,34.8,13.2,-12.5,70,32,4,29.23,29.15,9,1,9,0.00
2013-3-23,69.1,54.1,45.1,27.9,13.0,-11.4,46,23,4,29.26,29.18,4,0,6,0.00
2013-3-24,70.2,48.3,43.5,36.9,29.8,25.1,62,50,24,29.24,29.12,4,0,4,0.00
2013-3-25,62.2,53.9,45.3,38.9,34.2,29.0,73,49,34,29.15,29.06,3,0,4,0.00
2013-3-26,66.7,53.6,46.9,36.5,33.8,29.6,65,49,29,29.15,29.06,3,0,4,0.00
2013-3-27,67.5,55.1,45.5,44.2,38.2,32.1,70,54,34,29.15,29.09,5,0,5,0.00
2013-3-28,70.5,58.8,52.5,53.4,43.6,37.3,87,60,33,29.23,29.15,4,0,5,0.00
2013-3-29,75.0,60.3,50.5,45.0,39.1,30.9,76,50,23,29.21,29.15,4,0,4,0.00
2013-3-30,72.1,60.3,52.9,46.6,40.4,33.9,70,50,28,29.21,29.12,3,0,4,0.00
2013-3-31,70.0,59.4,52.0,47.2,39.5,29.0,72,51,23,29.21,29.12,6,0,6,0.00